sensor_id;sensor_type;location;lat;lon;timestamp;P1;durP1;ratioP1;P2;durP2;ratioP2
5678;SDS011;2862;52.560;13.566;2022-12-18T00:08:01;52.07;;;14.80;;
5678;SDS011;2862;52.560;13.566;2022-12-18T00:18:06;53.27;;;16.43;;
5678;SDS011;2862;52.560;13.566;2022-12-18T00:28:09;55.80;;;15.37;;
5678;SDS011;2862;52.560;13.566;2022-12-18T00:38:13;71.63;;;21.67;;
5678;SDS011;2862;52.560;13.566;2022-12-18T00:48:17;83.17;;;22.23;;
5678;SDS011;2862;52.560;13.566;2022-12-18T00:58:23;100.17;;;22.20;;
5678;SDS011;2862;52.560;13.566;2022-12-18T01:08:28;105.23;;;25.07;;
5678;SDS011;2862;52.560;13.566;2022-12-18T01:18:35;109.63;;;26.90;;
5678;SDS011;2862;52.560;13.566;2022-12-18T01:28:40;77.07;;;23.40;;
5678;SDS011;2862;52.560;13.566;2022-12-18T01:38:46;87.60;;;23.67;;
5678;SDS011;2862;52.560;13.566;2022-12-18T01:48:51;80.07;;;21.20;;
5678;SDS011;2862;52.560;13.566;2022-12-18T01:58:59;73.17;;;21.40;;
5678;SDS011;2862;52.560;13.566;2022-12-18T02:09:09;81.70;;;23.47;;
5678;SDS011;2862;52.560;13.566;2022-12-18T02:19:25;67.90;;;19.00;;
5678;SDS011;2862;52.560;13.566;2022-12-18T02:29:46;78.00;;;20.20;;
5678;SDS011;2862;52.560;13.566;2022-12-18T02:39:58;66.10;;;19.70;;
5678;SDS011;2862;52.560;13.566;2022-12-18T02:50:09;55.77;;;16.13;;
5678;SDS011;2862;52.560;13.566;2022-12-18T03:00:24;64.53;;;18.73;;
5678;SDS011;2862;52.560;13.566;2022-12-18T03:10:38;58.97;;;17.27;;
5678;SDS011;2862;52.560;13.566;2022-12-18T03:20:47;66.60;;;17.10;;
5678;SDS011;2862;52.560;13.566;2022-12-18T03:30:57;54.07;;;15.80;;
5678;SDS011;2862;52.560;13.566;2022-12-18T03:41:05;58.93;;;15.17;;
5678;SDS011;2862;52.560;13.566;2022-12-18T03:51:50;65.30;;;17.00;;
5678;SDS011;2862;52.560;13.566;2022-12-18T04:01:58;69.53;;;17.47;;
5678;SDS011;2862;52.560;13.566;2022-12-18T04:12:05;55.27;;;16.60;;
5678;SDS011;2862;52.560;13.566;2022-12-18T04:22:09;55.30;;;14.10;;
5678;SDS011;2862;52.560;13.566;2022-12-18T04:32:19;49.70;;;13.90;;
5678;SDS011;2862;52.560;13.566;2022-12-18T04:42:22;49.67;;;14.80;;
5678;SDS011;2862;52.560;13.566;2022-12-18T04:52:27;56.70;;;15.67;;
5678;SDS011;2862;52.560;13.566;2022-12-18T05:02:30;53.70;;;17.10;;
5678;SDS011;2862;52.560;13.566;2022-12-18T05:12:35;56.00;;;15.30;;
5678;SDS011;2862;52.560;13.566;2022-12-18T05:22:59;50.23;;;14.00;;
5678;SDS011;2862;52.560;13.566;2022-12-18T05:33:04;59.60;;;15.40;;
5678;SDS011;2862;52.560;13.566;2022-12-18T05:43:07;49.53;;;14.30;;
5678;SDS011;2862;52.560;13.566;2022-12-18T05:53:11;56.43;;;13.03;;
5678;SDS011;2862;52.560;13.566;2022-12-18T06:03:15;53.60;;;13.83;;
5678;SDS011;2862;52.560;13.566;2022-12-18T06:13:20;50.57;;;13.80;;
5678;SDS011;2862;52.560;13.566;2022-12-18T06:23:24;58.80;;;18.13;;
5678;SDS011;2862;52.560;13.566;2022-12-18T06:33:28;64.37;;;16.00;;
5678;SDS011;2862;52.560;13.566;2022-12-18T06:43:32;52.90;;;13.60;;
5678;SDS011;2862;52.560;13.566;2022-12-18T06:53:36;71.00;;;16.63;;
5678;SDS011;2862;52.560;13.566;2022-12-18T07:03:40;61.87;;;15.03;;
5678;SDS011;2862;52.560;13.566;2022-12-18T07:13:45;48.00;;;13.60;;
5678;SDS011;2862;52.560;13.566;2022-12-18T07:23:49;61.47;;;13.37;;
5678;SDS011;2862;52.560;13.566;2022-12-18T07:33:53;58.63;;;16.57;;
5678;SDS011;2862;52.560;13.566;2022-12-18T07:43:56;51.47;;;13.80;;
5678;SDS011;2862;52.560;13.566;2022-12-18T07:54:01;53.70;;;15.20;;
5678;SDS011;2862;52.560;13.566;2022-12-18T08:04:03;53.50;;;15.73;;
5678;SDS011;2862;52.560;13.566;2022-12-18T08:14:07;47.90;;;13.63;;
5678;SDS011;2862;52.560;13.566;2022-12-18T08:24:11;57.43;;;13.90;;
5678;SDS011;2862;52.560;13.566;2022-12-18T08:34:15;52.90;;;15.17;;
5678;SDS011;2862;52.560;13.566;2022-12-18T08:44:17;68.90;;;15.00;;
5678;SDS011;2862;52.560;13.566;2022-12-18T08:54:38;55.80;;;16.07;;
5678;SDS011;2862;52.560;13.566;2022-12-18T09:04:41;61.30;;;15.77;;
5678;SDS011;2862;52.560;13.566;2022-12-18T09:14:47;60.77;;;17.00;;
5678;SDS011;2862;52.560;13.566;2022-12-18T09:24:49;61.50;;;16.03;;
5678;SDS011;2862;52.560;13.566;2022-12-18T09:34:54;67.80;;;18.47;;
5678;SDS011;2862;52.560;13.566;2022-12-18T09:44:57;67.77;;;18.00;;
5678;SDS011;2862;52.560;13.566;2022-12-18T09:55:05;68.17;;;18.23;;
5678;SDS011;2862;52.560;13.566;2022-12-18T10:05:20;81.17;;;18.40;;
5678;SDS011;2862;52.560;13.566;2022-12-18T10:15:34;74.63;;;18.57;;
5678;SDS011;2862;52.560;13.566;2022-12-18T10:25:52;78.53;;;19.00;;
5678;SDS011;2862;52.560;13.566;2022-12-18T10:35:59;69.13;;;18.20;;
5678;SDS011;2862;52.560;13.566;2022-12-18T10:46:12;55.63;;;14.67;;
5678;SDS011;2862;52.560;13.566;2022-12-18T10:56:20;63.97;;;16.37;;
5678;SDS011;2862;52.560;13.566;2022-12-18T11:06:24;54.87;;;14.97;;
5678;SDS011;2862;52.560;13.566;2022-12-18T11:16:30;49.50;;;15.77;;
5678;SDS011;2862;52.560;13.566;2022-12-18T11:26:35;45.77;;;12.73;;
5678;SDS011;2862;52.560;13.566;2022-12-18T11:36:41;52.93;;;14.03;;
5678;SDS011;2862;52.560;13.566;2022-12-18T11:46:47;42.77;;;12.10;;
5678;SDS011;2862;52.560;13.566;2022-12-18T11:57:01;44.13;;;13.30;;
5678;SDS011;2862;52.560;13.566;2022-12-18T12:07:17;43.53;;;12.13;;
5678;SDS011;2862;52.560;13.566;2022-12-18T12:17:30;42.50;;;11.90;;
5678;SDS011;2862;52.560;13.566;2022-12-18T12:27:43;38.00;;;10.63;;
5678;SDS011;2862;52.560;13.566;2022-12-18T12:37:58;47.70;;;9.83;;
5678;SDS011;2862;52.560;13.566;2022-12-18T12:48:13;33.77;;;9.83;;
5678;SDS011;2862;52.560;13.566;2022-12-18T12:58:25;50.67;;;11.97;;
5678;SDS011;2862;52.560;13.566;2022-12-18T13:08:53;44.90;;;12.50;;
5678;SDS011;2862;52.560;13.566;2022-12-18T13:19:00;43.27;;;14.23;;
5678;SDS011;2862;52.560;13.566;2022-12-18T13:29:03;41.70;;;10.87;;
5678;SDS011;2862;52.560;13.566;2022-12-18T13:39:20;41.17;;;13.40;;
5678;SDS011;2862;52.560;13.566;2022-12-18T13:49:31;51.27;;;15.47;;
5678;SDS011;2862;52.560;13.566;2022-12-18T13:59:41;45.07;;;13.30;;
5678;SDS011;2862;52.560;13.566;2022-12-18T14:09:45;52.47;;;14.87;;
5678;SDS011;2862;52.560;13.566;2022-12-18T14:19:51;51.37;;;16.77;;
5678;SDS011;2862;52.560;13.566;2022-12-18T14:29:55;41.00;;;12.93;;
5678;SDS011;2862;52.560;13.566;2022-12-18T14:40:04;37.33;;;12.63;;
5678;SDS011;2862;52.560;13.566;2022-12-18T14:50:12;47.90;;;16.07;;
5678;SDS011;2862;52.560;13.566;2022-12-18T15:00:18;49.30;;;14.80;;
5678;SDS011;2862;52.560;13.566;2022-12-18T15:10:22;38.57;;;12.20;;
5678;SDS011;2862;52.560;13.566;2022-12-18T15:20:29;34.63;;;11.80;;
5678;SDS011;2862;52.560;13.566;2022-12-18T15:30:35;37.00;;;9.17;;
5678;SDS011;2862;52.560;13.566;2022-12-18T15:40:39;40.10;;;12.10;;
5678;SDS011;2862;52.560;13.566;2022-12-18T15:50:42;47.20;;;14.43;;
5678;SDS011;2862;52.560;13.566;2022-12-18T16:00:47;42.00;;;13.10;;
5678;SDS011;2862;52.560;13.566;2022-12-18T16:10:50;35.30;;;12.53;;
5678;SDS011;2862;52.560;13.566;2022-12-18T16:20:54;45.27;;;14.90;;
5678;SDS011;2862;52.560;13.566;2022-12-18T16:30:57;44.67;;;12.00;;
5678;SDS011;2862;52.560;13.566;2022-12-18T16:41:01;49.07;;;15.57;;
5678;SDS011;2862;52.560;13.566;2022-12-18T16:51:22;42.27;;;15.33;;
5678;SDS011;2862;52.560;13.566;2022-12-18T17:01:27;46.50;;;14.80;;
5678;SDS011;2862;52.560;13.566;2022-12-18T17:11:32;42.90;;;13.70;;
5678;SDS011;2862;52.560;13.566;2022-12-18T17:21:36;49.10;;;16.90;;
5678;SDS011;2862;52.560;13.566;2022-12-18T17:31:39;52.80;;;16.47;;
5678;SDS011;2862;52.560;13.566;2022-12-18T17:41:44;45.70;;;17.87;;
5678;SDS011;2862;52.560;13.566;2022-12-18T17:51:48;48.67;;;16.40;;
5678;SDS011;2862;52.560;13.566;2022-12-18T18:01:53;58.73;;;17.93;;
5678;SDS011;2862;52.560;13.566;2022-12-18T18:11:56;55.13;;;16.17;;
5678;SDS011;2862;52.560;13.566;2022-12-18T18:22:18;54.63;;;18.33;;
5678;SDS011;2862;52.560;13.566;2022-12-18T18:32:21;59.17;;;19.43;;
5678;SDS011;2862;52.560;13.566;2022-12-18T18:42:26;55.00;;;18.60;;
5678;SDS011;2862;52.560;13.566;2022-12-18T18:52:29;58.40;;;20.00;;
5678;SDS011;2862;52.560;13.566;2022-12-18T19:02:33;52.70;;;18.50;;
5678;SDS011;2862;52.560;13.566;2022-12-18T19:12:37;60.77;;;21.00;;
5678;SDS011;2862;52.560;13.566;2022-12-18T19:22:59;59.60;;;19.57;;
5678;SDS011;2862;52.560;13.566;2022-12-18T19:33:02;57.20;;;19.03;;
5678;SDS011;2862;52.560;13.566;2022-12-18T19:43:11;56.60;;;19.13;;
5678;SDS011;2862;52.560;13.566;2022-12-18T19:53:16;56.23;;;18.80;;
5678;SDS011;2862;52.560;13.566;2022-12-18T20:03:21;56.37;;;19.53;;
5678;SDS011;2862;52.560;13.566;2022-12-18T20:13:29;57.47;;;18.37;;
5678;SDS011;2862;52.560;13.566;2022-12-18T20:23:33;56.37;;;18.27;;
5678;SDS011;2862;52.560;13.566;2022-12-18T20:33:37;56.97;;;18.27;;
5678;SDS011;2862;52.560;13.566;2022-12-18T20:43:41;64.57;;;18.40;;
5678;SDS011;2862;52.560;13.566;2022-12-18T20:53:45;62.73;;;19.17;;
5678;SDS011;2862;52.560;13.566;2022-12-18T21:03:53;53.87;;;17.53;;
5678;SDS011;2862;52.560;13.566;2022-12-18T21:13:56;48.50;;;16.47;;
5678;SDS011;2862;52.560;13.566;2022-12-18T21:24:00;50.83;;;15.17;;
5678;SDS011;2862;52.560;13.566;2022-12-18T21:34:03;56.97;;;18.37;;
5678;SDS011;2862;52.560;13.566;2022-12-18T21:44:09;51.43;;;17.20;;
5678;SDS011;2862;52.560;13.566;2022-12-18T21:54:13;51.87;;;18.93;;
5678;SDS011;2862;52.560;13.566;2022-12-18T22:04:18;58.63;;;19.37;;
5678;SDS011;2862;52.560;13.566;2022-12-18T22:14:22;54.83;;;18.23;;
5678;SDS011;2862;52.560;13.566;2022-12-18T22:24:26;56.43;;;17.50;;
5678;SDS011;2862;52.560;13.566;2022-12-18T22:34:30;57.30;;;19.23;;
5678;SDS011;2862;52.560;13.566;2022-12-18T22:44:36;47.50;;;14.97;;
5678;SDS011;2862;52.560;13.566;2022-12-18T22:54:39;53.83;;;18.17;;
5678;SDS011;2862;52.560;13.566;2022-12-18T23:04:43;52.57;;;15.17;;
5678;SDS011;2862;52.560;13.566;2022-12-18T23:14:48;49.40;;;17.30;;
5678;SDS011;2862;52.560;13.566;2022-12-18T23:24:52;47.13;;;14.43;;
5678;SDS011;2862;52.560;13.566;2022-12-18T23:34:55;56.97;;;16.57;;
5678;SDS011;2862;52.560;13.566;2022-12-18T23:45:00;47.43;;;15.13;;
5678;SDS011;2862;52.560;13.566;2022-12-18T23:55:04;54.10;;;15.13;;
